Terminal Aerodrome Forecast
Issued by NWS Flagstaff, AZ

Home | Current Version | Previous Version | Text Only | Print | Product List | Glossary On
Versions: 1 2 3 4 5 6 7 8 9 10 11 12 13 14 15 16 17
000
FTUS45 KFGZ 032320
TAFINW
TAF
KINW 032320Z 0400/0424 25006KT P6SM SCT100 SCT140
      TEMPO 0400/0404 VRB20G34KT 5SM TSRA BKN070CB
     FM040600 VRB06KT P6SM SCT080 BKN140
     FM042000 24008KT P6SM SCT060 BKN100 PROB30 0421/0424 VRB15G30KT
      TSRA BKN060CB=

USA.gov is the U.S. government's official web portal to all federal, state and local government web resources and services.